createdAt,value
2024-01-03T00:04:49.390Z,2.72
2024-01-03T00:09:56.945Z,4.18
2024-01-03T00:15:00.147Z,3.03
2024-01-03T00:20:03.386Z,3.20
2024-01-03T00:25:11.630Z,3.45
2024-01-03T00:30:15.537Z,2.55
2024-01-03T00:35:21.169Z,3.03
2024-01-03T00:40:43.176Z,3.58
2024-01-03T00:45:48.906Z,3.25
2024-01-03T00:50:52.062Z,2.75
2024-01-03T00:55:55.885Z,4.72
2024-01-03T01:01:00.494Z,8.77
2024-01-03T01:06:03.779Z,6.72
2024-01-03T01:11:07.737Z,3.35
2024-01-03T01:16:12.275Z,2.90
2024-01-03T01:21:15.412Z,3.67
2024-01-03T01:26:18.598Z,3.70
2024-01-03T01:31:23.097Z,3.80
2024-01-03T01:36:26.212Z,4.72
2024-01-03T01:41:29.367Z,4.20
2024-01-03T01:46:35.783Z,3.50
2024-01-03T01:51:40.580Z,3.85
2024-01-03T01:56:44.160Z,4.55
2024-01-03T02:01:48.960Z,3.25
2024-01-03T02:06:52.156Z,5.20
2024-01-03T02:11:55.483Z,4.15
2024-01-03T02:17:00.026Z,4.78
2024-01-03T02:22:04.556Z,4.15
2024-01-03T02:27:07.803Z,5.70
2024-01-03T02:32:10.903Z,6.05
2024-01-03T02:37:15.425Z,4.63
2024-01-03T02:42:18.533Z,5.47
2024-01-03T02:47:21.704Z,6.10
2024-01-03T02:52:26.249Z,5.25
2024-01-03T02:57:29.381Z,5.55
2024-01-03T03:02:32.580Z,4.43
2024-01-03T03:07:37.762Z,4.45
2024-01-03T03:12:40.939Z,4.75
2024-01-03T03:17:44.200Z,4.50
2024-01-03T03:22:48.754Z,4.68
2024-01-03T03:27:51.942Z,5.25
2024-01-03T03:32:55.230Z,4.72
2024-01-03T03:37:59.799Z,4.10
2024-01-03T03:43:02.886Z,5.05
2024-01-03T03:48:06.773Z,5.35
2024-01-03T03:53:12.069Z,6.80
2024-01-03T03:58:15.236Z,4.85
2024-01-03T04:03:18.503Z,4.93
2024-01-03T04:08:23.139Z,4.82
2024-01-03T04:13:26.401Z,5.57
2024-01-03T04:18:29.637Z,5.28
2024-01-03T04:23:34.433Z,5.95
2024-01-03T04:28:37.541Z,8.10
2024-01-03T04:33:40.868Z,4.45
2024-01-03T04:38:45.674Z,6.97
2024-01-03T04:43:48.866Z,6.60
2024-01-03T04:48:52.173Z,12.57
2024-01-03T04:53:56.922Z,11.48
2024-01-03T04:59:00.541Z,11.38
2024-01-03T05:04:03.695Z,10.02
2024-01-03T05:09:08.597Z,8.70
2024-01-03T05:14:11.640Z,7.05
2024-01-03T05:19:14.903Z,6.05
2024-01-03T05:24:20.779Z,5.22
2024-01-03T05:29:23.963Z,5.85
2024-01-03T05:34:27.168Z,4.60
2024-01-03T05:39:31.672Z,5.32
2024-01-03T05:44:34.953Z,5.38
2024-01-03T05:49:38.212Z,4.95
2024-01-03T05:54:42.705Z,4.30
2024-01-03T05:59:45.873Z,4.72
2024-01-03T06:04:49.355Z,4.05
2024-01-03T06:09:53.819Z,3.58
2024-01-03T06:14:57.112Z,3.95
2024-01-03T06:20:00.432Z,3.50
2024-01-03T06:25:05.329Z,2.53
2024-01-03T06:30:09.655Z,3.30
2024-01-03T06:35:15.527Z,2.80
2024-01-03T06:40:22.188Z,1.85
2024-01-03T06:45:25.326Z,2.35
2024-01-03T06:50:28.473Z,1.90
2024-01-03T06:55:32.934Z,2.10
2024-01-03T07:00:36.080Z,1.33
2024-01-03T07:05:39.317Z,1.55
2024-01-03T07:10:44.000Z,1.10
2024-01-03T07:15:47.169Z,0.90
2024-01-03T07:20:50.357Z,0.68
2024-01-03T07:25:55.047Z,0.85
2024-01-03T07:30:58.230Z,0.88
2024-01-03T07:36:01.436Z,0.82
2024-01-03T07:41:06.202Z,0.70
2024-01-03T07:46:10.320Z,0.77
2024-01-03T07:51:13.542Z,0.70
2024-01-03T07:56:18.052Z,0.75
2024-01-03T08:01:22.785Z,0.40
2024-01-03T08:06:26.132Z,0.88
2024-01-03T08:11:30.747Z,0.70
2024-01-03T08:16:33.886Z,0.98
2024-01-03T08:21:37.079Z,0.85
2024-01-03T08:26:41.645Z,1.05
2024-01-03T08:31:44.770Z,1.40
2024-01-03T08:36:47.955Z,1.70
2024-01-03T08:41:55.108Z,2.33
2024-01-03T08:46:59.117Z,2.58
2024-01-03T08:52:02.803Z,2.50
2024-01-03T08:57:10.282Z,2.83
2024-01-03T09:02:13.593Z,2.20
2024-01-03T09:07:16.758Z,4.38
2024-01-03T09:12:22.886Z,3.00
2024-01-03T09:17:26.012Z,3.55
2024-01-03T09:22:29.154Z,3.95
2024-01-03T09:27:33.716Z,4.45
2024-01-03T09:32:37.010Z,4.68
2024-01-03T09:37:40.318Z,3.70
2024-01-03T09:42:45.273Z,3.90
2024-01-03T09:47:48.871Z,3.45
2024-01-03T09:52:53.944Z,3.53
2024-01-03T09:57:58.790Z,4.88
2024-01-03T10:03:02.565Z,3.63
2024-01-03T10:08:15.433Z,3.30
2024-01-03T10:13:20.708Z,4.93
2024-01-03T10:18:26.691Z,5.28
2024-01-03T10:23:31.952Z,5.03
2024-01-03T10:28:37.570Z,4.85
2024-01-03T10:33:54.839Z,6.00
2024-01-03T10:39:04.375Z,4.78
2024-01-03T10:44:10.721Z,5.43
2024-01-03T10:49:14.042Z,5.03
2024-01-03T10:54:18.033Z,4.93
2024-01-03T10:59:24.140Z,5.30
2024-01-03T11:04:32.178Z,6.15
2024-01-03T11:09:36.828Z,5.50
2024-01-03T11:14:41.646Z,4.57
2024-01-03T11:19:44.837Z,4.75
2024-01-03T11:24:48.299Z,5.43
2024-01-03T11:29:54.842Z,6.15
2024-01-03T11:34:59.054Z,5.13
2024-01-03T11:40:02.234Z,5.05
2024-01-03T11:45:08.291Z,4.95
2024-01-03T11:50:13.797Z,5.68
2024-01-03T11:55:18.015Z,5.47
2024-01-03T12:00:23.598Z,5.47
2024-01-03T12:05:27.474Z,6.20
2024-01-03T12:10:31.200Z,7.15
2024-01-03T12:15:43.366Z,6.10
2024-01-03T12:20:54.715Z,5.40
2024-01-03T12:25:58.025Z,5.10
2024-01-03T12:31:02.632Z,3.90
2024-01-03T12:36:08.244Z,4.28
2024-01-03T12:41:11.656Z,3.63
2024-01-03T12:46:16.133Z,3.47
2024-01-03T12:51:23.360Z,2.80
2024-01-03T12:56:31.127Z,1.92
2024-01-03T13:01:35.734Z,1.45
2024-01-03T13:06:38.986Z,1.60
2024-01-03T13:11:42.309Z,2.50
2024-01-03T13:16:46.916Z,2.10
2024-01-03T13:21:50.295Z,2.55
2024-01-03T13:26:53.493Z,2.70
2024-01-03T13:31:58.139Z,2.40
2024-01-03T13:37:01.323Z,2.40
2024-01-03T13:42:05.141Z,2.55
2024-01-03T13:47:09.740Z,2.28
2024-01-03T13:52:12.969Z,1.83
2024-01-03T13:57:16.095Z,2.13
2024-01-03T14:02:20.575Z,2.15
2024-01-03T14:07:23.692Z,2.33
2024-01-03T14:12:27.779Z,2.40
2024-01-03T14:17:33.518Z,2.63
2024-01-03T14:22:36.965Z,3.45
2024-01-03T14:27:41.178Z,1.90
2024-01-03T14:32:46.210Z,1.42
2024-01-03T14:37:49.404Z,1.15
2024-01-03T14:42:52.729Z,1.10
2024-01-03T14:47:57.406Z,0.88
2024-01-03T14:53:00.630Z,0.80
2024-01-03T14:58:03.946Z,0.90
2024-01-03T15:03:11.369Z,1.13
2024-01-03T15:08:16.230Z,0.93
2024-01-03T15:13:19.320Z,1.73
2024-01-03T15:18:24.737Z,1.17
2024-01-03T15:23:28.093Z,1.05
2024-01-03T15:28:31.269Z,1.00
2024-01-03T15:33:35.982Z,2.30
2024-01-03T15:38:39.228Z,1.65
2024-01-03T15:43:42.415Z,1.65
2024-01-03T15:48:47.097Z,1.65
2024-01-03T15:53:50.383Z,2.03
2024-01-03T15:58:53.818Z,2.25
2024-01-03T16:03:58.416Z,2.28
2024-01-03T16:09:01.635Z,2.30
2024-01-03T16:14:04.878Z,5.13
2024-01-03T16:19:09.457Z,3.30
2024-01-03T16:24:12.765Z,3.00
2024-01-03T16:29:16.804Z,2.50
2024-01-03T16:34:26.550Z,4.05
2024-01-03T16:39:32.125Z,2.88
2024-01-03T16:44:35.377Z,2.97
2024-01-03T16:49:40.512Z,2.10
2024-01-03T16:54:44.358Z,2.13
2024-01-03T16:59:49.233Z,2.25
2024-01-03T17:04:54.050Z,3.10
2024-01-03T17:10:04.072Z,2.50
2024-01-03T17:15:09.662Z,2.67
2024-01-03T17:20:15.502Z,2.25
2024-01-03T17:25:19.073Z,2.17
2024-01-03T17:30:22.277Z,2.03
2024-01-03T17:35:27.138Z,2.50
2024-01-03T17:40:30.286Z,5.25
2024-01-03T17:45:33.468Z,2.60
2024-01-03T17:50:37.987Z,3.00
2024-01-03T17:55:41.107Z,3.13
2024-01-03T18:00:44.225Z,2.40
2024-01-03T18:05:48.803Z,2.30
2024-01-03T18:10:52.122Z,2.10
2024-01-03T18:15:55.275Z,2.33
2024-01-03T18:20:59.764Z,3.17
2024-01-03T18:26:03.183Z,2.13
2024-01-03T18:31:06.419Z,1.98
2024-01-03T18:36:11.698Z,2.42
2024-01-03T18:41:16.850Z,2.63
2024-01-03T18:46:19.993Z,6.00
2024-01-03T18:51:24.855Z,2.47
2024-01-03T18:56:28.083Z,2.75
2024-01-03T19:01:31.573Z,2.20
2024-01-03T19:06:36.071Z,1.70
2024-01-03T19:11:39.302Z,1.50
2024-01-03T19:16:42.500Z,1.35
2024-01-03T19:21:47.056Z,1.17
2024-01-03T19:26:50.228Z,1.20
2024-01-03T19:31:53.324Z,2.13
2024-01-03T19:36:57.877Z,1.83
2024-01-03T19:42:01.501Z,2.20
2024-01-03T19:47:04.826Z,2.25
2024-01-03T19:52:09.477Z,2.40
2024-01-03T19:57:12.676Z,2.30
2024-01-03T20:02:15.944Z,2.03
2024-01-03T20:07:20.444Z,2.60
2024-01-03T20:12:23.536Z,2.30
2024-01-03T20:17:28.741Z,3.03
2024-01-03T20:22:33.441Z,3.83
2024-01-03T20:27:36.627Z,3.67
2024-01-03T20:32:40.200Z,3.80
2024-01-03T20:37:45.010Z,4.20
2024-01-03T20:42:48.144Z,4.03
2024-01-03T20:47:51.522Z,4.40
2024-01-03T20:52:56.079Z,4.25
2024-01-03T20:57:59.397Z,3.80
2024-01-03T21:03:02.607Z,4.15
2024-01-03T21:08:07.629Z,4.15
2024-01-03T21:13:11.107Z,6.20
2024-01-03T21:18:14.483Z,4.40
2024-01-03T21:23:19.105Z,4.00
2024-01-03T21:28:22.319Z,3.78
2024-01-03T21:33:25.625Z,3.80
2024-01-03T21:38:30.262Z,2.58
2024-01-03T21:43:33.381Z,3.58
2024-01-03T21:48:37.533Z,3.60
2024-01-03T21:53:42.049Z,3.85
2024-01-03T21:58:45.167Z,3.17
2024-01-03T22:03:48.466Z,2.63
2024-01-03T22:08:53.058Z,2.38
2024-01-03T22:13:56.195Z,2.83
2024-01-03T22:18:59.516Z,2.35
2024-01-03T22:24:04.122Z,6.78
2024-01-03T22:29:07.688Z,2.47
2024-01-03T22:34:10.980Z,2.20
2024-01-03T22:39:15.988Z,2.97
2024-01-03T22:44:19.214Z,2.47
2024-01-03T22:49:22.509Z,1.65
2024-01-03T22:54:27.141Z,2.17
2024-01-03T22:59:30.328Z,2.55
2024-01-03T23:04:33.473Z,2.15
2024-01-03T23:09:37.949Z,2.88
2024-01-03T23:14:42.213Z,3.15
2024-01-03T23:19:45.721Z,3.42
2024-01-03T23:24:50.342Z,3.58
2024-01-03T23:29:53.471Z,3.55
2024-01-03T23:34:56.622Z,2.53
2024-01-03T23:40:01.161Z,2.85
2024-01-03T23:45:04.488Z,3.92
2024-01-03T23:50:07.960Z,4.47
2024-01-03T23:55:12.623Z,5.82
